Time;durP1;ratioP1;P1;durP2;ratioP2;P2;SDS_P1;SDS_P2;PMS_P1;PMS_P2;Temp;Humidity;BMP_temperature;BMP_pressure;BME280_temperature;BME280_humidity;BME280_pressure;Samples;Min_cycle;Max_cycle;Signal;HPM_P1;HPM_P2
2021/05/05 00:01:11;;;;;;;4.00;2.45;;;15.60;70.60;;;;;;5027023;28;20025;-60
2021/05/05 00:03:37;;;;;;;6.38;2.78;;;15.60;70.50;;;;;;5004868;28;20064;-60
2021/05/05 00:06:03;;;;;;;4.40;2.22;;;15.60;70.50;;;;;;4998943;28;20058;-61
2021/05/05 00:08:28;;;;;;;4.82;2.55;;;15.60;70.30;;;;;;5022540;28;20033;-60
2021/05/05 00:10:54;;;;;;;3.90;2.30;;;15.60;70.20;;;;;;5022428;28;20397;-62
2021/05/05 00:13:19;;;;;;;5.25;2.20;;;15.50;70.20;;;;;;5020804;28;20041;-59
2021/05/05 00:15:45;;;;;;;3.33;2.20;;;15.60;70.10;;;;;;5021938;28;20033;-62
2021/05/05 00:18:11;;;;;;;5.20;2.33;;;15.50;70.00;;;;;;5021507;28;20029;-60
2021/05/05 00:20:36;;;;;;;5.30;2.25;;;15.50;70.70;;;;;;5029410;28;20546;-62
2021/05/05 00:23:02;;;;;;;3.60;2.33;;;15.60;69.90;;;;;;5019420;28;20026;-61
2021/05/05 00:25:28;;;;;;;7.22;1.77;;;15.50;69.80;;;;;;5023584;28;20025;-61
2021/05/05 00:27:53;;;;;;;3.08;2.05;;;15.60;69.90;;;;;;5016224;28;20079;-61
2021/05/05 00:30:20;;;;;;;2.85;1.92;;;15.60;69.80;;;;;;5026916;28;20021;-62
2021/05/05 00:32:45;;;;;;;1.92;1.70;;;15.50;69.70;;;;;;5024831;28;20033;-63
2021/05/05 00:35:11;;;;;;;1.63;1.52;;;15.30;69.50;;;;;;5025207;28;20029;-61
2021/05/05 00:37:37;;;;;;;4.35;2.20;;;15.50;69.60;;;;;;5016535;28;20030;-62
2021/05/05 00:40:03;;;;;;;3.40;2.03;;;15.50;69.60;;;;;;5028281;28;20021;-62
2021/05/05 00:42:29;;;;;;;2.72;1.80;;;15.50;69.50;;;;;;4998617;28;20157;-61
2021/05/05 00:44:58;;;;;;;3.65;2.03;;;15.50;69.50;;;;;;5020463;28;20117;-62
2021/05/05 00:47:24;;;;;;;2.38;1.55;;;15.50;69.50;;;;;;5025408;28;20073;-61
2021/05/05 00:49:49;;;;;;;2.70;1.80;;;15.50;69.50;;;;;;5022647;28;20065;-62
2021/05/05 00:52:15;;;;;;;3.80;1.80;;;15.50;69.50;;;;;;5019998;28;20100;-62
2021/05/05 00:54:40;;;;;;;3.08;2.10;;;15.50;69.50;;;;;;5024896;28;20026;-60
2021/05/05 00:57:07;;;;;;;3.92;1.80;;;15.50;69.50;;;;;;5016267;28;20151;-60
2021/05/05 00:59:32;;;;;;;3.17;2.05;;;15.50;69.40;;;;;;5020291;28;20538;-61
2021/05/05 01:01:58;;;;;;;2.03;1.77;;;15.50;69.30;;;;;;5020913;28;20101;-62
2021/05/05 01:04:23;;;;;;;5.82;2.00;;;15.50;69.40;;;;;;5009883;28;20018;-60
2021/05/05 01:06:49;;;;;;;3.97;1.77;;;15.40;69.30;;;;;;5021391;28;20036;-61
2021/05/05 01:09:14;;;;;;;2.67;1.65;;;15.50;69.40;;;;;;5013671;28;20358;-62
2021/05/05 01:11:40;;;;;;;2.13;1.63;;;15.50;69.50;;;;;;5020487;28;20014;-61
2021/05/05 01:14:06;;;;;;;2.63;1.90;;;15.50;69.40;;;;;;5021221;28;20040;-62
2021/05/05 01:16:31;;;;;;;4.40;1.80;;;15.40;69.50;;;;;;5022799;28;20030;-61
2021/05/05 01:18:57;;;;;;;3.53;1.90;;;15.50;69.50;;;;;;5024927;28;20104;-61
2021/05/05 01:21:22;;;;;;;2.05;1.63;;;15.40;69.50;;;;;;5026192;28;20063;-62
2021/05/05 01:23:48;;;;;;;2.05;1.42;;;15.40;69.50;;;;;;5027171;28;20078;-60
2021/05/05 01:26:13;;;;;;;2.63;1.65;;;15.40;69.70;;;;;;5023622;28;20043;-61
2021/05/05 01:28:39;;;;;;;2.10;1.70;;;15.40;69.60;;;;;;5024924;28;20421;-62
2021/05/05 01:31:06;;;;;;;2.35;1.52;;;15.40;69.60;;;;;;5023390;28;20013;-62
2021/05/05 01:33:31;;;;;;;2.67;1.60;;;15.40;69.70;;;;;;5027469;28;20022;-62
2021/05/05 01:35:57;;;;;;;4.97;2.10;;;15.40;69.70;;;;;;4998814;28;20033;-60
2021/05/05 01:38:22;;;;;;;3.13;2.00;;;15.40;69.70;;;;;;5012586;28;20104;-60
2021/05/05 01:40:49;;;;;;;2.47;2.25;;;15.40;69.90;;;;;;5015597;28;20026;-61
2021/05/05 01:43:14;;;;;;;4.38;2.28;;;15.40;70.00;;;;;;5019510;28;20017;-62
2021/05/05 01:45:40;;;;;;;2.58;1.90;;;15.40;70.10;;;;;;5018245;28;20036;-61
2021/05/05 01:48:07;;;;;;;2.88;1.90;;;15.40;70.30;;;;;;5021299;28;20057;-61
2021/05/05 01:50:32;;;;;;;2.60;2.30;;;15.40;70.30;;;;;;5028061;28;20380;-62
2021/05/05 01:52:58;;;;;;;2.63;2.17;;;15.40;70.20;;;;;;5011393;28;20017;-60
2021/05/05 01:55:23;;;;;;;2.13;1.90;;;15.40;70.40;;;;;;5018547;28;20026;-60
2021/05/05 01:57:49;;;;;;;3.10;2.00;;;15.30;70.40;;;;;;5004254;28;20080;-61
2021/05/05 02:00:21;;;;;;;3.28;2.38;;;15.40;70.40;;;;;;5010469;28;20033;-61
2021/05/05 02:02:47;;;;;;;2.72;2.25;;;15.30;70.50;;;;;;5022145;28;20021;-62
2021/05/05 02:05:13;;;;;;;2.20;2.00;;;15.30;70.60;;;;;;5027278;28;20036;-62
2021/05/05 02:07:38;;;;;;;3.10;2.00;;;15.30;70.70;;;;;;5016143;28;20398;-60
2021/05/05 02:10:06;;;;;;;4.20;2.05;;;15.30;70.90;;;;;;5024853;28;20477;-60
2021/05/05 02:12:32;;;;;;;2.28;1.80;;;15.30;70.90;;;;;;5027344;28;20462;-61
2021/05/05 02:14:57;;;;;;;2.92;1.70;;;15.30;71.00;;;;;;5009629;28;20030;-62
2021/05/05 02:17:23;;;;;;;2.75;2.00;;;15.30;71.00;;;;;;5022120;28;20053;-62
2021/05/05 02:19:48;;;;;;;5.93;2.00;;;15.30;71.10;;;;;;5027612;28;20047;-60
2021/05/05 02:22:14;;;;;;;5.25;2.38;;;15.30;71.10;;;;;;5023125;28;20370;-59
2021/05/05 02:24:39;;;;;;;2.78;2.10;;;15.30;71.30;;;;;;5022346;28;20025;-61
2021/05/05 02:27:05;;;;;;;3.92;2.20;;;15.30;71.30;;;;;;5009142;28;20079;-62
2021/05/05 02:29:31;;;;;;;2.40;1.83;;;15.30;71.60;;;;;;5009686;28;20033;-60
2021/05/05 02:31:56;;;;;;;1.90;1.70;;;15.30;71.40;;;;;;5009466;28;20038;-62
2021/05/05 02:34:22;;;;;;;4.82;1.60;;;15.30;71.60;;;;;;5022640;28;20512;-62
2021/05/05 02:36:48;;;;;;;4.03;2.03;;;15.30;71.70;;;;;;5017323;28;20026;-60
2021/05/05 02:39:13;;;;;;;2.47;1.90;;;15.20;72.00;;;;;;5012675;28;20321;-61
2021/05/05 02:41:39;;;;;;;2.78;1.98;;;15.30;72.20;;;;;;5019031;28;20033;-60
2021/05/05 02:44:05;;;;;;;2.45;1.83;;;15.20;72.20;;;;;;5020015;28;20034;-62
2021/05/05 02:46:31;;;;;;;4.90;1.90;;;15.20;72.60;;;;;;5026853;28;20033;-60
2021/05/05 02:48:56;;;;;;;2.30;1.75;;;15.20;72.70;;;;;;4997517;28;20046;-60
2021/05/05 02:51:22;;;;;;;3.78;2.17;;;15.20;72.90;;;;;;5022524;28;20021;-61
2021/05/05 02:53:47;;;;;;;6.07;2.00;;;15.20;73.20;;;;;;5023105;28;20108;-61
2021/05/05 02:56:13;;;;;;;5.47;1.98;;;15.20;73.60;;;;;;5031018;28;20021;-60
2021/05/05 02:58:38;;;;;;;8.45;2.30;;;15.20;73.50;;;;;;5022472;28;20037;-60
2021/05/05 03:01:04;;;;;;;4.38;2.50;;;15.20;73.70;;;;;;5018580;28;20034;-60
2021/05/05 03:03:29;;;;;;;3.15;2.10;;;15.20;73.90;;;;;;5017785;28;20040;-60
2021/05/05 03:05:55;;;;;;;3.17;2.05;;;15.20;74.00;;;;;;5016778;28;20029;-60
2021/05/05 03:08:20;;;;;;;2.30;2.03;;;15.10;74.00;;;;;;5018416;28;20025;-60
2021/05/05 03:10:46;;;;;;;4.10;2.30;;;15.10;74.20;;;;;;5008599;28;20030;-60
2021/05/05 03:13:12;;;;;;;2.72;2.10;;;15.10;74.30;;;;;;5000365;28;20237;-60
2021/05/05 03:15:38;;;;;;;5.15;2.38;;;15.10;74.40;;;;;;5012681;28;20513;-60
2021/05/05 03:18:03;;;;;;;2.55;2.10;;;15.10;74.30;;;;;;5012900;28;20026;-60
2021/05/05 03:20:29;;;;;;;4.90;2.30;;;15.10;74.40;;;;;;5009770;28;20481;-60
2021/05/05 03:22:54;;;;;;;4.97;2.58;;;15.10;74.40;;;;;;5022144;28;20029;-60
2021/05/05 03:25:20;;;;;;;3.08;2.50;;;15.10;74.30;;;;;;5011422;28;20033;-60
2021/05/05 03:27:45;;;;;;;5.05;2.47;;;15.10;74.40;;;;;;5014822;28;20389;-61
2021/05/05 03:30:11;;;;;;;3.53;2.25;;;15.10;74.40;;;;;;5015642;28;20066;-60
2021/05/05 03:32:37;;;;;;;4.00;2.50;;;15.00;74.50;;;;;;5009983;28;20120;-60
2021/05/05 03:35:03;;;;;;;3.25;2.67;;;15.10;74.90;;;;;;5021802;28;20022;-61
2021/05/05 03:37:28;;;;;;;2.95;2.58;;;15.00;75.10;;;;;;5021746;28;20025;-60
2021/05/05 03:39:54;;;;;;;4.70;2.60;;;15.00;75.30;;;;;;5011565;28;20010;-60
2021/05/05 03:42:20;;;;;;;4.78;2.75;;;15.00;75.40;;;;;;5014722;28;20378;-60
2021/05/05 03:44:45;;;;;;;3.63;2.65;;;15.00;75.50;;;;;;5019246;28;20014;-60
2021/05/05 03:47:11;;;;;;;5.53;2.50;;;14.90;75.70;;;;;;5008635;28;20030;-60
2021/05/05 03:49:37;;;;;;;12.25;3.08;;;14.90;76.00;;;;;;5025452;28;20515;-60
2021/05/05 03:52:03;;;;;;;6.03;1.90;;;14.80;76.30;;;;;;5003220;28;20026;-59
2021/05/05 03:54:28;;;;;;;1.95;1.65;;;14.80;76.20;;;;;;5022350;28;20029;-60
2021/05/05 03:56:54;;;;;;;4.68;1.88;;;14.80;76.20;;;;;;5022153;28;20041;-60
2021/05/05 03:59:19;;;;;;;6.40;1.50;;;14.70;76.20;;;;;;5026508;28;20060;-60
2021/05/05 04:01:45;;;;;;;1.95;1.60;;;14.70;76.40;;;;;;5019102;28;20040;-60
2021/05/05 04:04:10;;;;;;;2.72;1.33;;;14.70;76.30;;;;;;5012574;28;20037;-60
2021/05/05 04:06:36;;;;;;;6.25;1.77;;;14.60;76.40;;;;;;5020565;28;20037;-62
2021/05/05 04:09:01;;;;;;;29.92;4.40;;;14.60;76.40;;;;;;5023914;28;20207;-59
2021/05/05 04:11:27;;;;;;;39.17;4.53;;;14.60;76.20;;;;;;5012249;28;20029;-59
2021/05/05 04:13:52;;;;;;;44.25;5.72;;;14.50;76.20;;;;;;5018942;28;20101;-59
2021/05/05 04:16:18;;;;;;;51.97;6.68;;;14.50;76.20;;;;;;5011798;28;20497;-59
2021/05/05 04:18:43;;;;;;;55.17;6.05;;;14.40;76.10;;;;;;5022569;28;20099;-59
2021/05/05 04:21:09;;;;;;;51.38;7.30;;;14.30;76.10;;;;;;5016581;28;20044;-59
2021/05/05 04:23:35;;;;;;;111.53;9.02;;;14.30;76.20;;;;;;5017965;28;20551;-59
2021/05/05 04:26:00;;;;;;;111.28;10.32;;;14.30;76.20;;;;;;5013832;28;20091;-59
2021/05/05 04:28:26;;;;;;;114.43;9.50;;;14.30;76.10;;;;;;5018552;28;20039;-59
2021/05/05 04:30:51;;;;;;;108.18;9.32;;;14.30;76.10;;;;;;5000154;28;20041;-59
2021/05/05 04:33:17;;;;;;;170.40;14.45;;;14.20;76.10;;;;;;5018568;28;20029;-59
2021/05/05 04:35:43;;;;;;;233.50;17.05;;;14.20;76.40;;;;;;5018418;28;20018;-59
2021/05/05 04:38:08;;;;;;;329.33;25.25;;;14.20;76.00;;;;;;5023967;28;20123;-60
2021/05/05 04:40:34;;;;;;;393.23;29.80;;;14.20;75.90;;;;;;5016697;28;20109;-60
2021/05/05 04:42:59;;;;;;;365.20;27.23;;;14.20;75.90;;;;;;5017481;28;20534;-59
2021/05/05 04:45:25;;;;;;;273.60;22.88;;;14.20;75.80;;;;;;5014558;28;20493;-59
2021/05/05 04:47:51;;;;;;;290.67;21.40;;;14.20;75.90;;;;;;5018193;28;20137;-60
2021/05/05 04:50:16;;;;;;;271.80;22.05;;;14.10;75.80;;;;;;5023611;28;20041;-61
2021/05/05 04:52:42;;;;;;;281.83;20.95;;;14.10;75.90;;;;;;5020101;28;20155;-59
2021/05/05 04:55:08;;;;;;;239.80;18.48;;;14.10;75.90;;;;;;5020255;28;20026;-60
2021/05/05 04:57:34;;;;;;;227.25;19.52;;;14.10;75.90;;;;;;5020109;28;20021;-59
2021/05/05 04:59:59;;;;;;;243.35;19.33;;;14.10;75.90;;;;;;5020431;28;20501;-59
2021/05/05 05:02:25;;;;;;;192.25;16.83;;;14.10;75.90;;;;;;5020378;28;20106;-60
2021/05/05 05:04:50;;;;;;;144.73;14.73;;;14.10;75.90;;;;;;5015657;28;20072;-60
2021/05/05 05:07:16;;;;;;;195.07;16.73;;;14.00;75.90;;;;;;5026340;28;20029;-59
2021/05/05 05:09:42;;;;;;;209.57;18.95;;;14.00;75.90;;;;;;5020299;28;20053;-60
2021/05/05 05:12:07;;;;;;;223.95;19.55;;;14.00;75.80;;;;;;5020437;28;20026;-59
2021/05/05 05:14:36;;;;;;;180.35;16.58;;;14.00;75.80;;;;;;5021828;28;20445;-60
2021/05/05 05:17:01;;;;;;;145.77;14.88;;;14.00;75.70;;;;;;5019843;28;20102;-60
2021/05/05 05:19:27;;;;;;;172.18;15.43;;;14.00;75.60;;;;;;5012328;28;20529;-61
2021/05/05 05:21:52;;;;;;;147.35;13.55;;;14.00;75.60;;;;;;5014912;28;20034;-60
2021/05/05 05:24:18;;;;;;;187.30;17.15;;;14.00;75.60;;;;;;5016714;28;20038;-59
2021/05/05 05:26:44;;;;;;;123.55;12.52;;;14.00;75.60;;;;;;5003248;28;20033;-60
2021/05/05 05:29:10;;;;;;;130.75;12.15;;;14.00;75.60;;;;;;5016644;28;20090;-60
2021/05/05 05:31:35;;;;;;;129.10;12.10;;;13.90;75.60;;;;;;5021767;28;20061;-60
2021/05/05 05:34:01;;;;;;;107.30;10.82;;;13.90;75.70;;;;;;5019212;28;20067;-60
2021/05/05 05:36:26;;;;;;;108.40;10.65;;;13.90;75.50;;;;;;5013792;28;20107;-60
2021/05/05 05:38:52;;;;;;;117.95;10.70;;;13.90;75.50;;;;;;5028450;28;20448;-60
2021/05/05 05:41:17;;;;;;;87.50;9.60;;;13.90;75.50;;;;;;5027015;28;20029;-60
2021/05/05 05:43:43;;;;;;;109.47;11.52;;;13.90;75.50;;;;;;5022583;28;20037;-59
2021/05/05 05:46:09;;;;;;;98.15;10.48;;;13.90;75.50;;;;;;5021263;28;20048;-60
2021/05/05 05:48:35;;;;;;;96.03;9.63;;;13.90;75.50;;;;;;5016035;28;20039;-59
2021/05/05 05:51:01;;;;;;;107.35;11.60;;;13.90;75.80;;;;;;5015988;28;20435;-59
2021/05/05 05:53:26;;;;;;;93.50;10.15;;;13.90;75.70;;;;;;5013211;28;20084;-60
2021/05/05 05:55:52;;;;;;;84.93;11.00;;;13.90;75.50;;;;;;5027537;28;20032;-60
2021/05/05 05:58:17;;;;;;;78.18;8.55;;;13.80;75.70;;;;;;5026304;28;20041;-60
2021/05/05 06:00:43;;;;;;;102.22;9.80;;;13.80;75.60;;;;;;5014317;28;20152;-60
2021/05/05 06:03:08;;;;;;;83.30;7.88;;;13.80;75.50;;;;;;5020705;28;20488;-59
2021/05/05 06:05:34;;;;;;;81.70;9.63;;;13.70;75.50;;;;;;5015746;28;20489;-60
2021/05/05 06:08:01;;;;;;;78.93;8.38;;;13.80;75.50;;;;;;5009527;28;20276;-60
2021/05/05 06:10:27;;;;;;;68.50;7.90;;;13.80;75.50;;;;;;5018165;28;20049;-60
2021/05/05 06:12:53;;;;;;;72.00;7.30;;;13.80;76.10;;;;;;5010020;28;20021;-60
2021/05/05 06:15:18;;;;;;;56.88;6.72;;;13.70;75.50;;;;;;5019341;28;20017;-60
2021/05/05 06:17:44;;;;;;;64.20;8.25;;;13.70;75.50;;;;;;5010063;28;20041;-59
2021/05/05 06:20:10;;;;;;;70.97;7.00;;;13.70;75.60;;;;;;5013744;28;20305;-60
2021/05/05 06:22:35;;;;;;;59.20;7.15;;;13.70;75.60;;;;;;5016378;28;20077;-59
2021/05/05 06:25:03;;;;;;;66.38;7.00;;;13.60;75.50;;;;;;5025214;28;20057;-60
2021/05/05 06:27:28;;;;;;;192.50;16.02;;;13.70;75.70;;;;;;5006626;28;20560;-59
2021/05/05 06:29:54;;;;;;;145.43;13.20;;;13.60;76.00;;;;;;5023076;28;20049;-60
2021/05/05 06:32:19;;;;;;;72.28;6.90;;;13.60;76.20;;;;;;5023468;28;20022;-59
2021/05/05 06:34:45;;;;;;;67.63;7.32;;;13.60;76.20;;;;;;5017869;28;20026;-60
2021/05/05 06:37:10;;;;;;;84.18;7.90;;;13.60;76.20;;;;;;5022825;28;20451;-59
2021/05/05 06:39:36;;;;;;;82.03;7.43;;;13.60;76.20;;;;;;5018577;28;20399;-60
2021/05/05 06:42:01;;;;;;;65.70;5.90;;;13.60;76.10;;;;;;5016475;28;20057;-59
2021/05/05 06:44:27;;;;;;;45.45;6.10;;;13.60;76.10;;;;;;5017917;28;20481;-60
2021/05/05 06:46:55;;;;;;;72.90;5.55;;;13.60;76.00;;;;;;5010660;28;20042;-60
2021/05/05 06:49:21;;;;;;;67.72;6.70;;;13.60;76.10;;;;;;5017881;28;20136;-60
2021/05/05 06:51:46;;;;;;;38.90;4.85;;;13.60;76.00;;;;;;5013473;28;20492;-60
2021/05/05 06:54:12;;;;;;;52.30;5.68;;;13.60;76.20;;;;;;5012915;28;20038;-59
2021/05/05 06:56:37;;;;;;;44.55;5.90;;;13.60;76.20;;;;;;5009177;28;20084;-59
2021/05/05 06:59:03;;;;;;;41.42;4.70;;;13.60;76.10;;;;;;5017867;28;20076;-59
2021/05/05 07:01:29;;;;;;;39.92;5.50;;;13.50;75.80;;;;;;5017251;28;20029;-60
2021/05/05 07:03:54;;;;;;;33.75;4.40;;;13.60;75.90;;;;;;5016942;28;20488;-60
2021/05/05 07:06:20;;;;;;;46.80;6.15;;;13.60;75.70;;;;;;5014177;28;20034;-60
2021/05/05 07:08:45;;;;;;;50.15;4.88;;;13.60;76.00;;;;;;5020570;28;20026;-59
2021/05/05 07:11:11;;;;;;;38.50;4.28;;;13.50;76.00;;;;;;5013687;28;20045;-60
2021/05/05 07:13:36;;;;;;;62.70;6.18;;;13.50;76.10;;;;;;5021407;28;20017;-59
2021/05/05 07:16:02;;;;;;;33.97;3.92;;;13.50;76.30;;;;;;5016599;28;20103;-60
2021/05/05 07:18:28;;;;;;;44.15;4.05;;;13.50;76.40;;;;;;5016466;28;20038;-60
2021/05/05 07:20:53;;;;;;;30.10;3.92;;;13.40;76.60;;;;;;5005359;28;20025;-60
2021/05/05 07:23:19;;;;;;;33.72;3.55;;;13.40;76.60;;;;;;5015871;28;20034;-60
2021/05/05 07:25:44;;;;;;;36.33;3.90;;;13.40;76.70;;;;;;5018918;28;20037;-60
2021/05/05 07:28:10;;;;;;;15.38;2.40;;;13.30;76.80;;;;;;5024698;28;20045;-60
2021/05/05 07:30:36;;;;;;;26.55;2.60;;;13.30;76.80;;;;;;5019152;28;20026;-60
2021/05/05 07:33:02;;;;;;;21.17;2.97;;;13.20;76.70;;;;;;5011761;28;20029;-60
2021/05/05 07:35:29;;;;;;;21.95;2.40;;;13.20;76.70;;;;;;5027263;28;20172;-60
2021/05/05 07:45:38;;;;;;;23.45;3.75;;;13.10;76.80;;;;;;5014211;28;20172;-59
2021/05/05 07:48:08;;;;;;;25.30;2.30;;;13.10;76.70;;;;;;5025506;28;20237;-59
2021/05/05 07:50:33;;;;;;;16.67;2.35;;;13.20;76.80;;;;;;5025573;28;20028;-60
2021/05/05 07:53:00;;;;;;;21.73;2.50;;;13.20;76.80;;;;;;5033265;28;20485;-59
2021/05/05 07:55:26;;;;;;;23.13;3.17;;;13.10;76.60;;;;;;5017001;28;20064;-60
2021/05/05 07:57:51;;;;;;;18.70;2.22;;;13.10;76.40;;;;;;5011512;28;20434;-60
2021/05/05 08:00:17;;;;;;;20.88;2.42;;;13.10;76.30;;;;;;5028342;28;20531;-60
2021/05/05 08:02:43;;;;;;;28.25;2.20;;;13.10;76.30;;;;;;5028524;28;20131;-60
2021/05/05 08:05:09;;;;;;;19.77;3.05;;;13.10;76.30;;;;;;5031855;28;20100;-60
2021/05/05 08:07:34;;;;;;;31.02;2.70;;;13.10;76.20;;;;;;5021605;28;20020;-59
2021/05/05 08:10:00;;;;;;;36.60;3.35;;;13.10;76.30;;;;;;5015944;28;20113;-59
2021/05/05 08:12:25;;;;;;;30.00;3.97;;;13.20;76.10;;;;;;5030757;28;20376;-60
2021/05/05 08:14:51;;;;;;;25.67;3.42;;;13.10;76.10;;;;;;5030588;28;20041;-60
2021/05/05 08:17:17;;;;;;;18.52;2.60;;;13.10;76.10;;;;;;5039773;28;20091;-60
2021/05/05 08:19:43;;;;;;;23.45;2.90;;;13.10;76.40;;;;;;5041326;28;20035;-59
2021/05/05 08:22:09;;;;;;;37.42;3.22;;;13.10;76.50;;;;;;5028612;28;20115;-60
2021/05/05 08:24:34;;;;;;;40.63;3.70;;;13.20;76.90;;;;;;5040927;28;20041;-59
2021/05/05 08:27:00;;;;;;;19.38;2.20;;;13.20;77.80;;;;;;5031517;28;20379;-60
2021/05/05 08:29:28;;;;;;;35.00;3.38;;;13.20;77.30;;;;;;5009378;28;20052;-59
2021/05/05 08:31:55;;;;;;;36.00;3.17;;;13.20;77.20;;;;;;5022012;28;20108;-60
2021/05/05 08:34:20;;;;;;;31.05;2.78;;;13.20;77.20;;;;;;5037860;28;20021;-60
2021/05/05 08:36:46;;;;;;;24.58;2.72;;;13.20;77.30;;;;;;5004803;28;20451;-59
2021/05/05 08:39:11;;;;;;;18.23;2.67;;;13.20;77.40;;;;;;5024929;28;20048;-60
2021/05/05 08:41:38;;;;;;;28.85;3.33;;;13.20;77.20;;;;;;5013797;28;20044;-60
2021/05/05 08:44:07;;;;;;;46.03;5.38;;;13.20;77.10;;;;;;5032097;28;20016;-59
2021/05/05 08:46:33;;;;;;;44.05;4.65;;;13.30;77.30;;;;;;5007034;28;20056;-60
2021/05/05 08:48:58;;;;;;;43.30;4.55;;;13.30;77.20;;;;;;5005660;28;20549;-60
2021/05/05 08:51:24;;;;;;;37.80;4.45;;;13.30;77.00;;;;;;5022282;28;20029;-60
2021/05/05 08:53:51;;;;;;;30.50;4.18;;;13.40;77.10;;;;;;5009249;28;20404;-59
2021/05/05 08:56:16;;;;;;;50.00;6.32;;;13.40;77.20;;;;;;5036643;28;20022;-60
2021/05/05 08:58:42;;;;;;;56.40;6.35;;;13.40;76.80;;;;;;5040959;28;20319;-60
2021/05/05 09:01:07;;;;;;;47.70;5.25;;;13.40;77.20;;;;;;5041030;28;20463;-59
2021/05/05 09:03:34;;;;;;;174.43;14.70;;;13.50;77.10;;;;;;5019230;28;20033;-59
2021/05/05 09:06:01;;;;;;;102.03;9.85;;;13.50;77.30;;;;;;5021767;28;20120;-59
2021/05/05 09:08:27;;;;;;;114.15;8.93;;;13.50;77.50;;;;;;5021743;28;20016;-60
2021/05/05 09:11:12;;;;;;;84.47;8.90;;;13.60;77.70;;;;;;5021193;28;20025;-60
2021/05/05 09:13:45;;;;;;;73.25;9.65;;;13.50;77.50;;;;;;5002775;28;20025;-60
2021/05/05 09:16:12;;;;;;;80.43;8.00;;;13.50;77.30;;;;;;5025946;28;20363;-60
2021/05/05 09:19:04;;;;;;;65.95;8.18;;;13.50;77.40;;;;;;5033092;28;20030;-60
2021/05/05 09:21:39;;;;;;;41.42;5.45;;;13.50;76.90;;;;;;5015921;28;20025;-60
2021/05/05 09:24:25;;;;;;;36.35;4.93;;;13.50;76.60;;;;;;5037692;28;20040;-59
2021/05/05 09:26:52;;;;;;;42.47;5.25;;;13.50;75.80;;;;;;5035289;28;20489;-60
2021/05/05 09:29:18;;;;;;;67.38;6.07;;;13.50;75.40;;;;;;5018791;28;20642;-60
2021/05/05 09:31:44;;;;;;;41.30;5.25;;;13.40;75.30;;;;;;5037334;28;20037;-60
2021/05/05 09:34:11;;;;;;;42.20;4.43;;;13.40;75.10;;;;;;5028165;28;20128;-60
2021/05/05 09:36:38;;;;;;;53.35;4.95;;;13.40;74.70;;;;;;5001452;28;20161;-60
2021/05/05 09:39:05;;;;;;;56.50;5.75;;;13.30;74.80;;;;;;5027666;28;20029;-59
2021/05/05 09:41:32;;;;;;;46.20;5.70;;;13.30;74.80;;;;;;5032216;28;20043;-60
2021/05/05 09:43:59;;;;;;;53.85;5.72;;;13.30;74.70;;;;;;5035983;28;20116;-60
2021/05/05 09:46:46;;;;;;;62.67;6.15;;;13.30;74.40;;;;;;5022617;28;20048;-60
2021/05/05 09:49:32;;;;;;;;;;;13.40;74.50;;;;;;5022795;28;20112;-60
2021/05/05 09:52:00;;;;;;;47.20;6.07;;;13.30;74.30;;;;;;5030165;28;20329;-60
2021/05/05 09:54:39;;;;;;;59.70;6.80;;;13.40;74.30;;;;;;5014657;28;20294;-60
2021/05/05 09:57:31;;;;;;;77.90;6.53;;;13.40;74.10;;;;;;5021972;28;20032;-60
2021/05/05 09:59:56;;;;;;;113.13;11.35;;;13.40;74.00;;;;;;5023294;28;20017;-60
2021/05/05 10:02:22;;;;;;;139.13;13.80;;;13.40;73.70;;;;;;5040574;28;20397;-59
2021/05/05 10:05:29;;;;;;;99.90;10.30;;;13.40;73.90;;;;;;5026646;28;20083;-60
2021/05/05 10:07:56;;;;;;;76.10;8.50;;;13.40;73.90;;;;;;5018171;28;20128;-60
2021/05/05 10:10:28;;;;;;;74.70;7.93;;;13.50;73.70;;;;;;5031844;28;20060;-60
2021/05/05 10:12:55;;;;;;;72.72;9.18;;;13.50;73.60;;;;;;5033057;28;20083;-60
2021/05/05 10:15:21;;;;;;;76.18;9.18;;;13.50;73.50;;;;;;5006584;28;20636;-60
2021/05/05 10:17:53;;;;;;;66.20;6.85;;;13.50;73.50;;;;;;5013931;28;20025;-59
2021/05/05 10:20:21;;;;;;;56.72;5.40;;;13.50;73.50;;;;;;5016434;28;20511;-60
2021/05/05 10:22:47;;;;;;;55.28;6.95;;;13.50;73.40;;;;;;5022075;28;20029;-60
2021/05/05 10:25:16;;;;;;;44.75;6.75;;;13.50;73.40;;;;;;5014575;28;20039;-60
2021/05/05 10:27:42;;;;;;;64.30;6.95;;;13.50;73.30;;;;;;5023065;28;20066;-59
2021/05/05 10:30:09;;;;;;;56.72;5.93;;;13.50;73.10;;;;;;5022740;28;20377;-60
2021/05/05 10:32:35;;;;;;;43.97;6.55;;;13.50;73.10;;;;;;5005383;28;20068;-60
2021/05/05 10:35:00;;;;;;;41.85;6.22;;;13.60;73.10;;;;;;5022571;28;20072;-60
2021/05/05 10:37:49;;;;;;;51.38;5.80;;;13.60;73.10;;;;;;5002863;28;20111;-61
2021/05/05 10:40:22;;;;;;;54.90;6.07;;;13.60;73.00;;;;;;5034694;28;20068;-61
2021/05/05 10:42:56;;;;;;;48.75;5.15;;;13.60;72.80;;;;;;5018425;28;20025;-60
2021/05/05 10:45:35;;;;;;;46.97;5.18;;;13.70;72.80;;;;;;5031724;28;20041;-60
2021/05/05 10:48:11;;;;;;;56.58;5.70;;;13.60;72.50;;;;;;5009021;28;20164;-60
2021/05/05 10:50:52;;;;;;;47.60;6.80;;;13.60;72.20;;;;;;5039529;28;20064;-62
2021/05/05 10:53:21;;;;;;;64.75;7.22;;;13.60;72.30;;;;;;5040046;28;20033;-59
2021/05/05 10:55:53;;;;;;;69.75;7.35;;;13.60;72.10;;;;;;5024339;28;20032;-59
2021/05/05 10:58:40;;;;;;;41.35;6.22;;;13.60;71.90;;;;;;5027357;28;20024;-60
2021/05/05 11:01:06;;;;;;;56.30;6.22;;;13.60;71.80;;;;;;5024004;28;20063;-59
2021/05/05 11:03:47;;;;;;;38.20;4.63;;;13.50;71.50;;;;;;5019328;28;20175;-60
2021/05/05 11:06:31;;;;;;;54.97;6.43;;;13.50;71.70;;;;;;5032260;28;20029;-59
2021/05/05 11:09:17;;;;;;;58.78;6.47;;;13.50;71.80;;;;;;5035846;28;20021;-60
2021/05/05 11:11:47;;;;;;;33.72;5.40;;;13.50;71.80;;;;;;5025539;28;20128;-60
2021/05/05 11:14:28;;;;;;;53.58;5.03;;;13.50;71.80;;;;;;5006224;28;20028;-59
2021/05/05 11:16:54;;;;;;;62.58;8.25;;;13.50;71.80;;;;;;5038825;28;20057;-60
2021/05/05 11:19:35;;;;;;;38.53;5.50;;;13.50;71.70;;;;;;5025033;28;20045;-60
2021/05/05 11:22:09;;;;;;;62.85;6.93;;;13.60;71.60;;;;;;5037619;28;20044;-60
2021/05/05 11:24:38;;;;;;;60.63;6.20;;;13.70;71.60;;;;;;5032914;28;20027;-60
2021/05/05 11:27:06;;;;;;;72.22;6.68;;;13.80;71.50;;;;;;5033052;28;20068;-60
2021/05/05 11:29:42;;;;;;;59.45;6.50;;;13.80;71.40;;;;;;5009899;28;20053;-59
2021/05/05 11:32:28;;;;;;;46.30;7.30;;;13.80;71.30;;;;;;5033477;28;20116;-59
2021/05/05 11:34:53;;;;;;;49.22;5.88;;;13.80;71.00;;;;;;5034389;28;20048;-59
2021/05/05 11:37:26;;;;;;;39.30;6.45;;;13.80;70.40;;;;;;5031712;28;20118;-60
2021/05/05 11:39:54;;;;;;;37.38;4.22;;;13.80;70.10;;;;;;5002776;28;20029;-60
2021/05/05 11:42:25;;;;;;;53.35;5.43;;;13.70;69.40;;;;;;5014034;28;20029;-60
2021/05/05 11:44:57;;;;;;;46.83;5.22;;;13.80;69.20;;;;;;5026980;28;20030;-60
2021/05/05 11:47:28;;;;;;;58.13;5.57;;;13.70;68.70;;;;;;5034287;28;20139;-60
2021/05/05 11:49:54;;;;;;;42.90;5.00;;;13.70;68.40;;;;;;5033958;28;20079;-60
2021/05/05 11:52:23;;;;;;;46.70;5.70;;;13.70;68.00;;;;;;5019955;28;20095;-60
2021/05/05 11:55:09;;;;;;;43.78;6.20;;;13.80;67.60;;;;;;5032479;28;20025;-60
2021/05/05 11:57:39;;;;;;;56.20;4.55;;;13.90;67.10;;;;;;5031433;28;20029;-59
2021/05/05 12:00:12;;;;;;;49.53;5.38;;;13.90;66.40;;;;;;5041474;28;20048;-60
2021/05/05 12:03:03;;;;;;;52.03;6.63;;;13.90;66.10;;;;;;5039039;28;20033;-60
2021/05/05 12:05:39;;;;;;;42.38;4.53;;;13.90;65.50;;;;;;5028070;28;20024;-60
2021/05/05 12:08:05;;;;;;;;;;;13.90;65.70;;;;;;5031507;28;20033;-61
2021/05/05 12:10:49;;;;;;;70.63;8.48;;;13.90;64.60;;;;;;5021544;28;19915;-60
2021/05/05 12:13:22;;;;;;;103.30;8.52;;;14.00;64.30;;;;;;5036511;28;20022;-59
2021/05/05 12:16:14;;;;;;;87.95;12.05;;;14.00;64.10;;;;;;5020648;28;20021;-59
2021/05/05 12:18:45;;;;;;;254.70;22.58;;;14.10;63.60;;;;;;5035946;28;20090;-60
2021/05/05 12:21:21;;;;;;;64.50;6.82;;;14.20;63.30;;;;;;5040372;28;20033;-59
2021/05/05 12:23:49;;;;;;;77.13;10.25;;;14.20;62.60;;;;;;5032721;28;20096;-61
2021/05/05 12:26:25;;;;;;;69.93;7.80;;;14.20;62.50;;;;;;5011088;28;20033;-59
2021/05/05 12:28:52;;;;;;;91.50;9.88;;;14.20;62.60;;;;;;5033968;28;20492;-61
2021/05/05 12:31:19;;;;;;;54.20;7.75;;;14.20;62.20;;;;;;5020292;28;20464;-60
2021/05/05 12:33:45;;;;;;;70.43;7.57;;;14.30;62.40;;;;;;5037135;28;20029;-60
2021/05/05 12:36:22;;;;;;;53.92;7.30;;;14.30;62.30;;;;;;5019778;28;20500;-59
2021/05/05 12:38:49;;;;;;;42.10;5.60;;;14.30;61.90;;;;;;5017262;28;20037;-60
2021/05/05 12:41:17;;;;;;;43.17;5.15;;;14.30;61.60;;;;;;5008477;28;20435;-60
2021/05/05 12:43:51;;;;;;;139.60;15.77;;;14.40;61.50;;;;;;5004383;28;20043;-60
2021/05/05 12:46:24;;;;;;;48.83;6.68;;;14.40;61.10;;;;;;5030288;28;20053;-60
2021/05/05 12:48:50;;;;;;;90.53;8.80;;;14.40;60.90;;;;;;5020576;28;20072;-60